Time;durP1;ratioP1;P1;durP2;ratioP2;P2;SDS_P1;SDS_P2;PMS_P1;PMS_P2;Temp;Humidity;BMP_temperature;BMP_pressure;BME280_temperature;BME280_humidity;BME280_pressure;Samples;Min_cycle;Max_cycle;Signal;HPM_P1;HPM_P2
2024/01/20 00:02:19;;;;;;;;;;;3.20;99.90;;;;;;5099150;27;19928;-73
2024/01/20 00:04:45;;;;;;;;;;;4.00;99.90;;;;;;5065011;28;20235;-73
2024/01/20 00:07:10;;;;;;;;;;;3.50;99.90;;;;;;5051667;27;20275;-73
2024/01/20 00:09:36;;;;;;;;;;;3.30;99.90;;;;;;5083431;28;19932;-74
2024/01/20 00:12:03;;;;;;;;;;;3.30;99.90;;;;;;5081408;28;19932;-73
2024/01/20 00:14:29;;;;;;;;;;;3.30;99.90;;;;;;5065018;28;20023;-74
2024/01/20 00:16:54;;;;;;;;;;;3.20;99.90;;;;;;5082788;28;19924;-74
2024/01/20 00:19:20;;;;;;;;;;;3.20;99.90;;;;;;5082361;28;19931;-74
2024/01/20 00:21:47;;;;;;;;;;;3.30;99.90;;;;;;5065782;27;19928;-74
2024/01/20 00:24:12;;;;;;;;;;;3.20;99.90;;;;;;5081444;27;19924;-73
2024/01/20 00:26:39;;;;;;;;;;;3.20;99.90;;;;;;5100463;27;20496;-74
2024/01/20 00:29:06;;;;;;;;;;;3.20;99.90;;;;;;5082617;28;19923;-73
2024/01/20 00:31:32;;;;;;;;;;;3.70;99.90;;;;;;5096317;28;20015;-74
2024/01/20 00:33:58;;;;;;;;;;;3.20;99.90;;;;;;5060909;28;20366;-73
2024/01/20 00:36:23;;;;;;;;;;;3.20;99.90;;;;;;5092543;28;19924;-73
2024/01/20 00:38:49;;;;;;;;;;;3.20;99.90;;;;;;5080710;28;19949;-74
2024/01/20 00:41:15;;;;;;;;;;;3.30;99.90;;;;;;5080777;28;20035;-74
2024/01/20 00:43:40;;;;;;;;;;;3.60;99.90;;;;;;5082275;28;20306;-73
2024/01/20 00:46:06;;;;;;;;;;;3.30;99.90;;;;;;5098998;27;20265;-74
2024/01/20 00:48:32;;;;;;;;;;;3.30;99.90;;;;;;5078896;28;20477;-73
2024/01/20 00:50:57;;;;;;;;;;;3.30;99.90;;;;;;5079279;28;20010;-73
2024/01/20 00:53:24;;;;;;;;;;;3.20;99.90;;;;;;5082534;28;19931;-73
2024/01/20 00:55:50;;;;;;;;;;;3.30;99.90;;;;;;5081670;28;19932;-73
2024/01/20 00:58:16;;;;;;;;;;;3.30;99.90;;;;;;5080409;28;19934;-73
2024/01/20 01:00:42;;;;;;;;;;;3.30;99.90;;;;;;5079824;27;20099;-74
2024/01/20 01:03:08;;;;;;;;;;;3.80;99.90;;;;;;5080863;28;19928;-73
2024/01/20 01:05:34;;;;;;;;;;;3.40;99.90;;;;;;5063982;28;19980;-73
2024/01/20 01:08:01;;;;;;;;;;;4.00;99.90;;;;;;5098196;27;19969;-74
2024/01/20 01:10:30;;;;;;;;;;;3.40;99.90;;;;;;5080775;27;19924;-73
2024/01/20 01:12:55;;;;;;;;;;;3.50;99.90;;;;;;5048196;28;19927;-74
2024/01/20 01:15:21;;;;;;;;;;;3.40;99.90;;;;;;5064681;28;20381;-73
2024/01/20 01:17:53;;;;;;;;;;;3.70;99.90;;;;;;5095840;27;20872;-74
2024/01/20 01:20:20;;;;;;;;;;;3.60;99.90;;;;;;5062161;28;19935;-74
2024/01/20 01:22:45;;;;;;;;;;;3.50;99.90;;;;;;5078991;27;20186;-73
2024/01/20 01:25:11;;;;;;;;;;;3.50;99.90;;;;;;5081865;28;20420;-72
2024/01/20 01:27:36;;;;;;;;;;;3.70;99.90;;;;;;5081542;28;20485;-73
2024/01/20 01:30:02;;;;;;;;;;;3.40;99.90;;;;;;5081015;28;20226;-72
2024/01/20 01:32:28;;;;;;;;;;;3.50;99.90;;;;;;5061123;28;20336;-72
2024/01/20 01:34:53;;;;;;;;;;;3.50;99.90;;;;;;5063366;28;19935;-73
2024/01/20 01:37:19;;;;;;;;;;;3.90;99.90;;;;;;5062651;28;19928;-73
2024/01/20 01:39:45;;;;;;;;;;;3.40;99.90;;;;;;5096652;27;20131;-72
2024/01/20 01:42:10;;;;;;;;;;;3.40;99.90;;;;;;5064410;28;19927;-73
2024/01/20 01:44:36;;;;;;;;;;;3.40;99.90;;;;;;5073056;28;21335;-73
2024/01/20 01:47:02;;;;;;;;;;;2.60;99.90;;;;;;5080696;28;19923;-73
2024/01/20 01:49:27;;;;;;;;;;;3.40;99.90;;;;;;5081525;28;20005;-72
2024/01/20 01:51:53;;;;;;;;;;;3.40;99.90;;;;;;5079190;28;19927;-72
2024/01/20 01:54:24;;;;;;;;;;;3.30;99.90;;;;;;5096506;28;20019;-73
2024/01/20 01:56:56;;;;;;;;;;;3.30;99.90;;;;;;5079277;28;19942;-73
2024/01/20 01:59:22;;;;;;;;;;;3.20;99.90;;;;;;5062432;28;19927;-72
2024/01/20 02:01:52;;;;;;;;;;;3.40;99.90;;;;;;5077382;28;20035;-73
2024/01/20 02:04:18;;;;;;;;;;;4.40;99.90;;;;;;5100356;27;19924;-72
2024/01/20 02:06:46;;;;;;;;;;;3.40;99.90;;;;;;5081713;28;19931;-71
2024/01/20 02:09:12;;;;;;;;;;;3.30;99.90;;;;;;5078313;28;20448;-73
2024/01/20 02:11:38;;;;;;;;;;;4.30;99.90;;;;;;5081240;28;20015;-72
2024/01/20 02:14:05;;;;;;;;;;;3.40;99.90;;;;;;5082632;28;19927;-72
2024/01/20 02:16:30;;;;;;;;;;;3.30;99.90;;;;;;5080743;28;20016;-72
2024/01/20 02:19:03;;;;;;;;;;;3.60;99.90;;;;;;5066517;28;20362;-73
2024/01/20 02:21:32;;;;;;;;;;;3.40;99.90;;;;;;5094235;28;19928;-72
2024/01/20 02:23:59;;;;;;;;;;;3.40;99.90;;;;;;5079218;28;20058;-72
2024/01/20 02:26:27;;;;;;;;;;;3.40;99.90;;;;;;5079677;28;20507;-72
2024/01/20 02:28:55;;;;;;;;;;;3.30;99.90;;;;;;5062631;28;20010;-73
2024/01/20 02:31:20;;;;;;;;;;;3.30;99.90;;;;;;5079257;28;19928;-73
2024/01/20 02:33:46;;;;;;;;;;;3.30;99.90;;;;;;5061999;28;19935;-72
2024/01/20 02:36:12;;;;;;;;;;;2.10;99.90;;;;;;5080561;28;19931;-73
2024/01/20 02:38:37;;;;;;;;;;;3.70;99.90;;;;;;5081055;28;19950;-73
2024/01/20 02:41:18;;;;;;;;;;;3.80;99.90;;;;;;5081545;28;20298;-73
2024/01/20 02:43:43;;;;;;;;;;;3.40;99.90;;;;;;5062659;28;19924;-73
2024/01/20 02:46:14;;;;;;;;;;;3.30;99.90;;;;;;5096228;28;19981;-73
2024/01/20 02:48:42;;;;;;;;;;;4.00;99.90;;;;;;5078184;28;19928;-73
2024/01/20 02:51:07;;;;;;;;;;;3.40;99.90;;;;;;5063626;28;19931;-73
2024/01/20 02:53:33;;;;;;;;;;;3.40;99.90;;;;;;5060953;28;19923;-73
2024/01/20 02:55:59;;;;;;;;;;;3.40;99.90;;;;;;5062788;28;19989;-73
2024/01/20 02:58:25;;;;;;;;;;;3.40;99.90;;;;;;5079198;28;20628;-73
2024/01/20 03:00:50;;;;;;;;;;;3.30;99.90;;;;;;5070203;28;19934;-73
2024/01/20 03:03:16;;;;;;;;;;;4.80;99.90;;;;;;5076589;28;20310;-73
2024/01/20 03:05:42;;;;;;;;;;;3.40;99.90;;;;;;5078966;28;19967;-75
2024/01/20 03:08:08;;;;;;;;;;;3.30;99.90;;;;;;5096586;28;19923;-73
2024/01/20 03:10:34;;;;;;;;;;;3.60;99.90;;;;;;5085216;28;19928;-73
2024/01/20 03:13:00;;;;;;;;;;;3.40;99.90;;;;;;5097462;27;20328;-73
2024/01/20 03:15:25;;;;;;;;;;;3.20;99.90;;;;;;5066278;28;19927;-74
2024/01/20 03:17:51;;;;;;;;;;;3.40;99.90;;;;;;5067510;28;19928;-74
2024/01/20 03:20:17;;;;;;;;;;;3.40;99.90;;;;;;5081855;28;19928;-72
2024/01/20 03:22:43;;;;;;;;;;;3.40;99.90;;;;;;5079629;28;19933;-73
2024/01/20 03:25:08;;;;;;;;;;;3.30;99.90;;;;;;5049670;28;19938;-73
2024/01/20 03:27:34;;;;;;;;;;;3.40;99.90;;;;;;5051172;27;19942;-73
2024/01/20 03:30:00;;;;;;;;;;;3.30;99.90;;;;;;5083937;28;20229;-73
2024/01/20 03:32:32;;;;;;;;;;;3.30;99.90;;;;;;5052127;27;20391;-73
2024/01/20 03:34:58;;;;;;;;;;;3.30;99.90;;;;;;5083790;28;19927;-74
2024/01/20 03:37:24;;;;;;;;;;;3.30;99.90;;;;;;5066381;28;19935;-73
2024/01/20 03:39:49;;;;;;;;;;;3.40;99.90;;;;;;5063199;27;20003;-73
2024/01/20 03:42:15;;;;;;;;;;;3.30;99.90;;;;;;5066355;28;19924;-73
2024/01/20 03:44:42;;;;;;;;;;;3.30;99.90;;;;;;5083660;28;19963;-73
2024/01/20 03:47:07;;;;;;;;;;;3.40;99.90;;;;;;5084149;28;20443;-73
2024/01/20 03:49:34;;;;;;;;;;;3.60;99.90;;;;;;5082257;28;20357;-73
2024/01/20 03:52:00;;;;;;;;;;;3.30;99.90;;;;;;5066032;28;20010;-73
2024/01/20 03:54:25;;;;;;;;;;;3.30;99.90;;;;;;5082590;28;19935;-73
2024/01/20 03:56:51;;;;;;;;;;;3.40;99.90;;;;;;5099857;27;20022;-73
2024/01/20 03:59:17;;;;;;;;;;;3.30;99.90;;;;;;5081259;28;19953;-72
2024/01/20 04:01:42;;;;;;;;;;;3.30;99.90;;;;;;5081043;28;19931;-73
2024/01/20 04:04:08;;;;;;;;;;;3.90;99.90;;;;;;5082767;27;20591;-73
2024/01/20 04:06:34;;;;;;;;;;;3.70;99.90;;;;;;5080845;27;19934;-73
2024/01/20 04:08:59;;;;;;;;;;;3.30;99.90;;;;;;5082048;28;20557;-73
2024/01/20 04:11:25;;;;;;;;;;;3.70;99.90;;;;;;5058826;28;19976;-72
2024/01/20 04:13:51;;;;;;;;;;;3.20;99.90;;;;;;5065851;27;19928;-73
2024/01/20 04:16:17;;;;;;;;;;;3.30;99.90;;;;;;5053973;28;20385;-73
2024/01/20 04:18:56;;;;;;;;;;;3.20;99.90;;;;;;5067172;28;19993;-72
2024/01/20 04:21:22;;;;;;;;;;;3.00;99.90;;;;;;5081669;28;19928;-72
2024/01/20 04:23:49;;;;;;;;;;;3.40;99.90;;;;;;5098604;28;19939;-73
2024/01/20 04:26:14;;;;;;;;;;;3.40;99.90;;;;;;5081435;28;19920;-73
2024/01/20 04:28:46;;;;;;;;;;;3.40;99.90;;;;;;5099939;28;20229;-73
2024/01/20 04:31:11;;;;;;;;;;;3.30;99.90;;;;;;5083332;28;19928;-74
2024/01/20 04:33:39;;;;;;;;;;;3.40;99.90;;;;;;5098872;28;19928;-73
2024/01/20 04:36:06;;;;;;;;;;;3.40;99.90;;;;;;5097228;27;20274;-73
2024/01/20 04:38:31;;;;;;;;;;;3.30;99.90;;;;;;5082350;28;19928;-73
2024/01/20 04:40:57;;;;;;;;;;;3.30;99.90;;;;;;5101625;28;19931;-72
2024/01/20 04:43:23;;;;;;;;;;;3.30;99.90;;;;;;5066806;28;20010;-73
2024/01/20 04:45:49;;;;;;;;;;;3.30;99.90;;;;;;5075259;28;20228;-73
2024/01/20 04:48:16;;;;;;;;;;;3.20;99.90;;;;;;5068737;27;19924;-73
2024/01/20 04:50:42;;;;;;;;;;;3.30;99.90;;;;;;5085794;28;19928;-72
2024/01/20 04:53:07;;;;;;;;;;;3.30;99.90;;;;;;5085070;28;20198;-72
2024/01/20 04:55:33;;;;;;;;;;;3.20;99.90;;;;;;5065867;28;20365;-73
2024/01/20 04:58:00;;;;;;;;;;;3.20;99.90;;;;;;5101856;28;19980;-73
2024/01/20 05:00:27;;;;;;;;;;;3.30;99.90;;;;;;5082205;28;19947;-72
2024/01/20 05:02:52;;;;;;;;;;;3.90;99.90;;;;;;5066948;28;20045;-72
2024/01/20 05:05:24;;;;;;;;;;;3.30;99.90;;;;;;5064032;28;19932;-73
2024/01/20 05:07:53;;;;;;;;;;;3.20;99.90;;;;;;5067345;28;19927;-72
2024/01/20 05:10:19;;;;;;;;;;;3.20;99.90;;;;;;5066460;28;19951;-72
2024/01/20 05:12:44;;;;;;;;;;;3.20;99.90;;;;;;5051557;28;19935;-73
2024/01/20 05:15:11;;;;;;;;;;;3.30;99.90;;;;;;5081601;27;20018;-73
2024/01/20 05:17:37;;;;;;;;;;;3.20;99.90;;;;;;5082703;28;19928;-73
2024/01/20 05:20:04;;;;;;;;;;;3.30;99.90;;;;;;5082891;28;19932;-72
2024/01/20 05:22:32;;;;;;;;;;;3.40;99.90;;;;;;5083804;28;19935;-73
2024/01/20 05:24:58;;;;;;;;;;;3.20;99.90;;;;;;5068185;28;19931;-73
2024/01/20 05:27:26;;;;;;;;;;;4.30;99.90;;;;;;5069158;28;19984;-73
2024/01/20 05:29:52;;;;;;;;;;;3.10;99.90;;;;;;5083131;28;19932;-73
2024/01/20 05:32:18;;;;;;;;;;;3.10;99.90;;;;;;5067130;27;19935;-72
2024/01/20 05:34:46;;;;;;;;;;;3.20;99.90;;;;;;5083897;28;19931;-72
2024/01/20 05:37:12;;;;;;;;;;;3.20;99.90;;;;;;5097350;27;19928;-72
2024/01/20 05:39:37;;;;;;;;;;;3.90;99.90;;;;;;5085186;28;20491;-73
2024/01/20 05:42:06;;;;;;;;;;;3.30;99.90;;;;;;5097765;28;19924;-71
2024/01/20 05:44:38;;;;;;;;;;;3.30;99.80;;;;;;5066128;28;20025;-72
2024/01/20 05:47:04;;;;;;;;;;;3.20;99.90;;;;;;5097731;28;20518;-72
2024/01/20 05:49:30;;;;;;;;;;;3.10;99.90;;;;;;5060870;28;19931;-73
2024/01/20 05:51:56;;;;;;;;;;;4.20;99.90;;;;;;5084960;28;20381;-72
2024/01/20 05:54:24;;;;;;;;;;;4.60;99.90;;;;;;5085441;28;20153;-72
2024/01/20 05:56:51;;;;;;;;;;;3.00;99.90;;;;;;5066932;28;19932;-73
2024/01/20 05:59:17;;;;;;;;;;;3.80;99.90;;;;;;5065777;28;19927;-72
2024/01/20 06:01:50;;;;;;;;;;;3.80;99.90;;;;;;5081856;27;19934;-73
2024/01/20 06:04:16;;;;;;;;;;;4.80;99.90;;;;;;5081665;28;20379;-73
2024/01/20 06:06:48;;;;;;;;;;;3.30;99.80;;;;;;5066106;28;19939;-74
2024/01/20 06:09:14;;;;;;;;;;;3.40;99.80;;;;;;5099876;28;19980;-72
2024/01/20 06:11:40;;;;;;;;;;;3.30;99.60;;;;;;5097584;28;19927;-73
2024/01/20 06:14:06;;;;;;;;;;;3.20;99.60;;;;;;5078774;28;19924;-73
2024/01/20 06:16:33;;;;;;;;;;;3.40;99.50;;;;;;5079394;28;19938;-73
2024/01/20 06:18:59;;;;;;;;;;;3.60;99.40;;;;;;5080721;28;19978;-73
2024/01/20 06:21:30;;;;;;;;;;;3.50;99.20;;;;;;5080982;28;19938;-73
2024/01/20 06:24:03;;;;;;;;;;;3.80;99.10;;;;;;5082918;28;19932;-73
2024/01/20 06:26:29;;;;;;;;;;;3.40;98.90;;;;;;5100359;28;19938;-73
2024/01/20 06:28:55;;;;;;;;;;;3.50;98.80;;;;;;5079475;28;19924;-72
2024/01/20 06:31:30;;;;;;;;;;;4.10;98.70;;;;;;5063640;28;19932;-80
2024/01/20 06:34:16;;;;;;;;;;;3.60;98.50;;;;;;5080684;28;19932;-77
2024/01/20 06:37:04;;;;;;;;;;;1.80;97.80;;;;;;5099747;28;19981;-74
2024/01/20 06:39:30;;;;;;;;;;;3.40;98.10;;;;;;5058000;28;19967;-74
2024/01/20 06:42:01;;;;;;;;;;;3.50;98.40;;;;;;5079837;28;20697;-74
2024/01/20 06:44:27;;;;;;;;;;;5.20;98.80;;;;;;5066185;28;19975;-73
2024/01/20 06:46:54;;;;;;;;;;;3.50;98.10;;;;;;5086148;27;20354;-72
2024/01/20 06:49:20;;;;;;;;;;;3.60;97.90;;;;;;5085407;27;20000;-73
2024/01/20 06:51:54;;;;;;;;;;;4.10;98.30;;;;;;5085803;28;19938;-72
2024/01/20 06:54:26;;;;;;;;;;;3.60;98.00;;;;;;5081142;28;19939;-72
2024/01/20 06:56:51;;;;;;;;;;;3.60;97.90;;;;;;5087134;28;19932;-73
2024/01/20 06:59:18;;;;;;;;;;;3.70;97.60;;;;;;5085617;27;19928;-72
2024/01/20 07:01:45;;;;;;;;;;;3.60;97.70;;;;;;5103063;28;19947;-72
2024/01/20 07:04:11;;;;;;;;;;;4.40;97.90;;;;;;5069751;28;20022;-72
2024/01/20 07:06:37;;;;;;;;;;;3.70;97.60;;;;;;5067328;28;20014;-72
2024/01/20 07:09:05;;;;;;;;;;;3.70;97.80;;;;;;5085622;28;19938;-73
2024/01/20 07:11:31;;;;;;;;;;;3.60;97.90;;;;;;5100221;27;19927;-72
2024/01/20 07:13:57;;;;;;;;;;;3.60;98.10;;;;;;5085670;28;19932;-72
2024/01/20 07:16:24;;;;;;;;;;;3.50;98.20;;;;;;5067568;28;21033;-72
2024/01/20 07:18:50;;;;;;;;;;;3.50;98.30;;;;;;5104032;27;19934;-73
2024/01/20 07:21:15;;;;;;;;;;;3.60;98.40;;;;;;5065507;28;20250;-72
2024/01/20 07:23:42;;;;;;;;;;;3.60;98.60;;;;;;5070757;28;19928;-73
2024/01/20 07:26:08;;;;;;;;;;;3.60;98.60;;;;;;5069186;28;20429;-73
2024/01/20 07:28:33;;;;;;;;;;;3.50;98.70;;;;;;5067988;28;19927;-73
2024/01/20 07:30:59;;;;;;;;;;;3.50;98.80;;;;;;5083878;27;19939;-73
2024/01/20 07:33:25;;;;;;;;;;;3.60;99.10;;;;;;5064806;28;19976;-73
2024/01/20 07:35:52;;;;;;;;;;;3.90;99.20;;;;;;5084901;27;20306;-73
2024/01/20 07:38:19;;;;;;;;;;;3.60;99.10;;;;;;5049764;27;19932;-73
2024/01/20 07:40:59;;;;;;;;;;;4.70;99.50;;;;;;5086996;28;20415;-73
2024/01/20 07:43:25;;;;;;;;;;;3.60;99.20;;;;;;5083938;28;19976;-73
2024/01/20 07:45:54;;;;;;;;;;;3.90;99.30;;;;;;5054139;27;19935;-73
2024/01/20 07:48:27;;;;;;;;;;;5.20;99.70;;;;;;5067114;28;19924;-73
2024/01/20 07:51:02;;;;;;;;;;;4.30;99.50;;;;;;5086732;27;21477;-74
2024/01/20 07:53:35;;;;;;;;;;;3.50;99.40;;;;;;5083110;28;19973;-74
2024/01/20 07:56:00;;;;;;;;;;;3.50;99.40;;;;;;5049536;28;19938;-73
2024/01/20 07:58:30;;;;;;;;;;;3.80;99.60;;;;;;5054037;28;19928;-74
2024/01/20 08:01:04;;;;;;;;;;;3.90;99.80;;;;;;5024215;28;19975;-74
2024/01/20 08:03:38;;;;;;;;;;;2.90;99.60;;;;;;5057134;28;19933;-72
2024/01/20 08:06:04;;;;;;;;;;;3.50;99.90;;;;;;5042601;28;19925;-73
2024/01/20 08:08:30;;;;;;;;;;;3.40;99.90;;;;;;5036859;28;19943;-74
2024/01/20 08:10:55;;;;;;;;;;;3.20;99.90;;;;;;5039220;28;20352;-74
2024/01/20 08:13:21;;;;;;;;;;;3.20;99.90;;;;;;5058539;28;19933;-75
2024/01/20 08:15:46;;;;;;;;;;;3.20;99.90;;;;;;5023671;28;19929;-73
2024/01/20 08:18:12;;;;;;;;;;;3.00;99.90;;;;;;5023294;28;19981;-73
2024/01/20 08:20:38;;;;;;;;;;;2.90;99.90;;;;;;5037701;28;19974;-78
2024/01/20 08:23:06;;;;;;;;;;;2.70;99.90;;;;;;5026777;28;19932;-79
2024/01/20 08:25:31;;;;;;;;;;;2.50;99.90;;;;;;5021951;28;19931;-73
2024/01/20 08:27:57;;;;;;;;;;;3.20;99.90;;;;;;5038048;28;20335;-73
2024/01/20 08:30:24;;;;;;;;;;;3.70;99.90;;;;;;5040894;28;19971;-73
2024/01/20 08:32:49;;;;;;;;;;;2.60;99.90;;;;;;5046041;28;20027;-73
2024/01/20 08:35:15;;;;;;;;;;;2.80;99.90;;;;;;5025906;28;19931;-73
2024/01/20 08:37:40;;;;;;;;;;;2.60;99.90;;;;;;5059894;28;19932;-73
2024/01/20 08:40:06;;;;;;;;;;;2.70;99.90;;;;;;5069740;28;19924;-73
2024/01/20 08:42:32;;;;;;;;;;;2.70;99.90;;;;;;5069485;28;20355;-73
2024/01/20 08:44:57;;;;;;;;;;;2.70;99.90;;;;;;5085211;28;20282;-73
2024/01/20 08:47:23;;;;;;;;;;;2.60;99.90;;;;;;5087596;28;20439;-73
2024/01/20 08:49:51;;;;;;;;;;;2.80;99.90;;;;;;5069117;28;20449;-73
2024/01/20 08:52:17;;;;;;;;;;;2.60;99.90;;;;;;5086871;28;20694;-73
2024/01/20 08:54:43;;;;;;;;;;;2.60;99.90;;;;;;5086364;28;19978;-72
2024/01/20 08:57:08;;;;;;;;;;;2.90;99.90;;;;;;5087836;28;20602;-73
2024/01/20 08:59:35;;;;;;;;;;;3.20;99.90;;;;;;5070449;28;19927;-73
2024/01/20 09:02:01;;;;;;;;;;;2.50;99.90;;;;;;5088023;28;20011;-73
2024/01/20 09:04:26;;;;;;;;;;;2.50;99.90;;;;;;5071127;28;20042;-73
2024/01/20 09:06:52;;;;;;;;;;;4.00;99.90;;;;;;5085811;28;19928;-73
2024/01/20 09:09:18;;;;;;;;;;;2.50;99.90;;;;;;5105360;28;20020;-73
2024/01/20 09:11:50;;;;;;;;;;;2.40;99.90;;;;;;5087589;28;19928;-73
2024/01/20 09:14:15;;;;;;;;;;;2.40;99.90;;;;;;5053106;28;19924;-72
2024/01/20 09:16:41;;;;;;;;;;;2.40;99.90;;;;;;5069004;28;20008;-73
2024/01/20 09:19:07;;;;;;;;;;;2.30;99.90;;;;;;5068453;28;19938;-73
2024/01/20 09:21:32;;;;;;;;;;;2.30;99.90;;;;;;5087183;28;19932;-73
2024/01/20 09:23:59;;;;;;;;;;;2.30;99.90;;;;;;5087626;28;20008;-72
2024/01/20 09:26:30;;;;;;;;;;;2.30;99.90;;;;;;5102542;28;20044;-73
2024/01/20 09:28:55;;;;;;;;;;;2.50;99.90;;;;;;5052009;28;19963;-73
2024/01/20 09:31:21;;;;;;;;;;;2.40;99.90;;;;;;5085748;28;20267;-73
2024/01/20 09:33:47;;;;;;;;;;;2.40;99.90;;;;;;5086591;28;19934;-73
2024/01/20 09:36:13;;;;;;;;;;;2.40;99.90;;;;;;5086162;28;19928;-73
2024/01/20 09:38:38;;;;;;;;;;;2.40;99.90;;;;;;5085559;28;19927;-73
2024/01/20 09:41:09;;;;;;;;;;;2.40;99.90;;;;;;5069098;28;19931;-73
2024/01/20 09:43:39;;;;;;;;;;;2.40;99.90;;;;;;5099076;28;19923;-73
2024/01/20 09:46:05;;;;;;;;;;;2.40;99.90;;;;;;5102599;28;19935;-73
2024/01/20 09:48:31;;;;;;;;;;;2.40;99.90;;;;;;5069856;28;20289;-73
2024/01/20 09:50:57;;;;;;;;;;;2.40;99.90;;;;;;5086597;28;20465;-73
2024/01/20 09:53:23;;;;;;;;;;;2.40;99.90;;;;;;5067667;28;20366;-73
2024/01/20 09:55:49;;;;;;;;;;;2.40;99.90;;;;;;5102101;28;19924;-73
2024/01/20 09:58:16;;;;;;;;;;;2.40;99.90;;;;;;5068516;28;19939;-72
2024/01/20 10:00:41;;;;;;;;;;;3.00;99.90;;;;;;5103554;28;19932;-72
2024/01/20 10:03:08;;;;;;;;;;;2.40;99.90;;;;;;5101317;28;19927;-72
2024/01/20 10:05:34;;;;;;;;;;;2.40;99.90;;;;;;5066204;28;20010;-73
2024/01/20 10:08:00;;;;;;;;;;;2.40;99.90;;;;;;5083210;28;20050;-73
2024/01/20 10:10:26;;;;;;;;;;;2.40;99.90;;;;;;5100810;28;20015;-72
2024/01/20 10:12:57;;;;;;;;;;;2.40;99.90;;;;;;5086333;28;20004;-73
2024/01/20 10:15:25;;;;;;;;;;;2.40;99.90;;;;;;5084551;28;19943;-72
2024/01/20 10:17:51;;;;;;;;;;;2.50;99.90;;;;;;5085637;28;19928;-72
2024/01/20 10:20:21;;;;;;;;;;;2.50;99.90;;;;;;5103897;28;19987;-72
2024/01/20 10:22:47;;;;;;;;;;;2.60;99.90;;;;;;5086356;28;20393;-72
2024/01/20 10:25:18;;;;;;;;;;;2.60;99.90;;;;;;5102799;28;20365;-73
2024/01/20 10:27:48;;;;;;;;;;;2.60;99.90;;;;;;5086500;28;20346;-73
2024/01/20 10:30:26;;;;;;;;;;;2.60;99.90;;;;;;5086744;28;19947;-73
2024/01/20 10:32:54;;;;;;;;;;;2.70;99.90;;;;;;5084011;28;19930;-73
2024/01/20 10:35:20;;;;;;;;;;;2.60;99.90;;;;;;5085471;28;19928;-73
2024/01/20 10:37:47;;;;;;;;;;;2.70;99.90;;;;;;5086447;28;19923;-72
2024/01/20 10:40:13;;;;;;;;;;;2.70;99.90;;;;;;5085366;28;20029;-73
2024/01/20 10:42:44;;;;;;;;;;;2.70;99.90;;;;;;5086987;28;19932;-71
2024/01/20 10:45:19;;;;;;;;;;;2.70;99.90;;;;;;5086026;28;20076;-73
2024/01/20 10:47:48;;;;;;;;;;;2.70;99.90;;;;;;5104428;28;19927;-72
2024/01/20 10:50:14;;;;;;;;;;;2.70;99.90;;;;;;5088065;28;19975;-73
2024/01/20 10:52:39;;;;;;;;;;;2.70;99.90;;;;;;5089613;28;19935;-73
2024/01/20 10:55:05;;;;;;;;;;;3.80;99.90;;;;;;5072315;28;19924;-73
2024/01/20 10:57:31;;;;;;;;;;;2.80;99.90;;;;;;5086748;28;20367;-73
2024/01/20 11:00:00;;;;;;;;;;;2.80;99.90;;;;;;5088132;28;20367;-72
2024/01/20 11:02:26;;;;;;;;;;;2.70;99.90;;;;;;5088656;28;19924;-73
2024/01/20 11:04:52;;;;;;;;;;;3.00;99.90;;;;;;5089313;28;20003;-73
2024/01/20 11:07:26;;;;;;;;;;;2.80;99.90;;;;;;5086533;28;19939;-73
2024/01/20 11:09:58;;;;;;;;;;;4.50;99.90;;;;;;5104950;28;19928;-73
2024/01/20 11:12:24;;;;;;;;;;;2.70;99.90;;;;;;5087826;28;19934;-73
2024/01/20 11:14:51;;;;;;;;;;;2.80;99.90;;;;;;5088385;28;19931;-73
2024/01/20 11:17:17;;;;;;;;;;;2.80;99.90;;;;;;5087772;28;20031;-73
2024/01/20 11:19:43;;;;;;;;;;;3.10;99.90;;;;;;5073083;28;20018;-73
2024/01/20 11:22:28;;;;;;;;;;;2.80;99.90;;;;;;5087492;28;19992;-73
2024/01/20 11:24:54;;;;;;;;;;;2.80;99.90;;;;;;5069981;28;19934;-72
2024/01/20 11:27:19;;;;;;;;;;;2.80;99.90;;;;;;5107122;28;19954;-73
2024/01/20 11:29:45;;;;;;;;;;;2.80;99.90;;;;;;5103159;28;20010;-73
2024/01/20 11:32:11;;;;;;;;;;;2.80;99.90;;;;;;5094437;28;19981;-73
2024/01/20 11:34:36;;;;;;;;;;;3.20;99.90;;;;;;5093282;28;20188;-73
2024/01/20 11:37:02;;;;;;;;;;;2.90;99.90;;;;;;5060830;28;19936;-73
2024/01/20 11:39:28;;;;;;;;;;;2.90;99.90;;;;;;5074111;28;19927;-75
2024/01/20 11:42:01;;;;;;;;;;;2.90;99.90;;;;;;5108557;28;19934;-74
2024/01/20 11:44:27;;;;;;;;;;;2.90;99.90;;;;;;5090980;28;19927;-77
2024/01/20 11:46:54;;;;;;;;;;;2.90;99.90;;;;;;5088816;28;20191;-72
2024/01/20 11:49:19;;;;;;;;;;;2.90;99.90;;;;;;5088221;28;19931;-73
2024/01/20 11:51:45;;;;;;;;;;;2.90;99.90;;;;;;5089575;28;19934;-74
2024/01/20 11:54:11;;;;;;;;;;;3.00;99.90;;;;;;5091261;28;20365;-75
2024/01/20 11:56:36;;;;;;;;;;;3.70;99.90;;;;;;5091065;28;19976;-76
2024/01/20 11:59:02;;;;;;;;;;;3.10;99.90;;;;;;5060770;28;19938;-73
2024/01/20 12:01:28;;;;;;;;;;;3.10;99.90;;;;;;5089806;28;20378;-77
2024/01/20 12:04:00;;;;;;;;;;;3.10;99.90;;;;;;5090526;28;20247;-78
2024/01/20 12:06:41;;;;;;;;;;;3.10;99.90;;;;;;5029747;28;20380;-79
2024/01/20 12:09:06;;;;;;;;;;;3.10;99.90;;;;;;5025818;28;19978;-79
2024/01/20 12:11:34;;;;;;;;;;;3.10;99.90;;;;;;5011617;28;19955;-81
2024/01/20 12:14:00;;;;;;;;;;;3.10;99.90;;;;;;5026578;28;20068;-81
2024/01/20 12:16:26;;;;;;;;;;;4.20;99.90;;;;;;5026807;28;20322;-78
2024/01/20 12:18:54;;;;;;;;;;;3.10;99.90;;;;;;5024812;28;19925;-77
2024/01/20 12:21:20;;;;;;;;;;;3.20;99.90;;;;;;5042063;28;20368;-78
2024/01/20 12:23:46;;;;;;;;;;;3.20;99.90;;;;;;5018839;28;19958;-78
2024/01/20 12:26:12;;;;;;;;;;;3.30;99.90;;;;;;5025693;28;19929;-74
2024/01/20 12:28:39;;;;;;;;;;;3.30;99.90;;;;;;5014944;28;20438;-77
2024/01/20 12:31:04;;;;;;;;;;;3.30;99.90;;;;;;5027897;28;20189;-77
2024/01/20 12:33:30;;;;;;;;;;;2.60;99.90;;;;;;5024626;28;19929;-76
2024/01/20 12:35:55;;;;;;;;;;;3.40;99.90;;;;;;5042771;28;19933;-77
2024/01/20 12:38:21;;;;;;;;;;;3.40;99.90;;;;;;5077555;28;19971;-77
2024/01/20 12:40:47;;;;;;;;;;;3.50;99.90;;;;;;5070120;28;19934;-76
2024/01/20 12:43:12;;;;;;;;;;;3.50;99.90;;;;;;5104959;28;19932;-77
2024/01/20 12:45:38;;;;;;;;;;;3.80;99.90;;;;;;5085501;28;19938;-77
2024/01/20 12:48:04;;;;;;;;;;;3.60;99.90;;;;;;5088011;28;20003;-78
2024/01/20 12:50:29;;;;;;;;;;;3.60;99.90;;;;;;5087677;28;19928;-77
2024/01/20 12:52:55;;;;;;;;;;;3.70;99.90;;;;;;5082340;28;19963;-73
2024/01/20 12:55:22;;;;;;;;;;;3.70;99.90;;;;;;5083664;28;19934;-74
2024/01/20 12:57:48;;;;;;;;;;;3.80;99.90;;;;;;5080545;27;19947;-75
2024/01/20 13:00:14;;;;;;;;;;;3.50;99.90;;;;;;5070119;28;19935;-74
2024/01/20 13:02:39;;;;;;;;;;;3.70;99.90;;;;;;5087591;28;19939;-74
2024/01/20 13:05:05;;;;;;;;;;;3.70;99.90;;;;;;5069314;28;20231;-74
2024/01/20 13:07:31;;;;;;;;;;;3.70;99.90;;;;;;5066675;28;20369;-75
2024/01/20 13:09:58;;;;;;;;;;;3.70;99.90;;;;;;5103546;28;19985;-74
2024/01/20 13:12:23;;;;;;;;;;;3.90;99.90;;;;;;5071233;28;19932;-74
2024/01/20 13:14:49;;;;;;;;;;;3.90;99.90;;;;;;5086426;28;19930;-75
2024/01/20 13:17:15;;;;;;;;;;;4.00;99.90;;;;;;5085815;28;20852;-74
2024/01/20 13:19:40;;;;;;;;;;;4.00;99.90;;;;;;5082078;28;19939;-74
2024/01/20 13:22:06;;;;;;;;;;;4.10;99.90;;;;;;5070061;28;19928;-75
2024/01/20 13:24:32;;;;;;;;;;;4.10;99.90;;;;;;5084915;28;19993;-75
2024/01/20 13:26:57;;;;;;;;;;;4.10;99.90;;;;;;5069508;28;20451;-75
2024/01/20 13:29:23;;;;;;;;;;;4.10;99.90;;;;;;5064854;28;19932;-74
2024/01/20 13:31:48;;;;;;;;;;;4.10;99.90;;;;;;5087175;28;19951;-74
2024/01/20 13:34:20;;;;;;;;;;;4.20;99.90;;;;;;5068918;28;19924;-75
2024/01/20 13:36:47;;;;;;;;;;;4.20;99.90;;;;;;5050662;28;19932;-74
2024/01/20 13:39:12;;;;;;;;;;;3.60;99.90;;;;;;5065275;28;19935;-74
2024/01/20 13:41:38;;;;;;;;;;;4.30;99.90;;;;;;5048860;28;20361;-75
2024/01/20 13:44:04;;;;;;;;;;;4.30;99.90;;;;;;5065996;27;19972;-74
2024/01/20 13:46:29;;;;;;;;;;;4.20;99.90;;;;;;5064678;28;20419;-75
2024/01/20 13:48:55;;;;;;;;;;;4.20;99.90;;;;;;5062974;28;19927;-77
2024/01/20 13:51:31;;;;;;;;;;;4.10;99.90;;;;;;5064326;28;20041;-73
2024/01/20 13:53:58;;;;;;;;;;;4.00;99.90;;;;;;5094527;28;19928;-73
2024/01/20 13:56:25;;;;;;;;;;;4.00;99.90;;;;;;5079692;28;20018;-75
2024/01/20 13:58:52;;;;;;;;;;;4.00;99.90;;;;;;5094287;28;20014;-75
2024/01/20 14:01:21;;;;;;;;;;;4.10;99.90;;;;;;5080929;28;19928;-74
2024/01/20 14:03:48;;;;;;;;;;;3.90;99.90;;;;;;5079905;28;21053;-74
2024/01/20 14:06:13;;;;;;;;;;;3.90;99.90;;;;;;5081226;28;19932;-74
2024/01/20 14:08:40;;;;;;;;;;;3.80;99.90;;;;;;5079539;28;19935;-77
2024/01/20 14:11:12;;;;;;;;;;;3.80;99.90;;;;;;5079864;28;20111;-79
2024/01/20 14:13:37;;;;;;;;;;;3.80;99.90;;;;;;5082873;28;20461;-71
2024/01/20 14:16:03;;;;;;;;;;;3.80;99.90;;;;;;5081705;28;19924;-74
2024/01/20 14:18:29;;;;;;;;;;;3.70;99.90;;;;;;5079805;28;20282;-74
2024/01/20 14:20:54;;;;;;;;;;;3.60;99.90;;;;;;5063915;28;19963;-74
2024/01/20 14:23:22;;;;;;;;;;;3.70;99.90;;;;;;5046431;28;19982;-78
2024/01/20 14:25:47;;;;;;;;;;;3.60;99.90;;;;;;5082464;28;20473;-78
2024/01/20 14:28:13;;;;;;;;;;;3.40;99.90;;;;;;5082479;28;20011;-79
2024/01/20 14:30:39;;;;;;;;;;;3.70;99.90;;;;;;5049714;28;20383;-78